sensor_id;sensor_type;location;lat;lon;timestamp;P1;durP1;ratioP1;P2;durP2;ratioP2
33862;SDS011;20158;51.436;-2.742;2022-08-26T00:00:50;2.95;;;1.60;;
33862;SDS011;20158;51.436;-2.742;2022-08-26T00:03:17;3.58;;;1.38;;
33862;SDS011;20158;51.436;-2.742;2022-08-26T00:05:44;6.00;;;1.88;;
33862;SDS011;20158;51.436;-2.742;2022-08-26T00:08:10;2.47;;;1.35;;
33862;SDS011;20158;51.436;-2.742;2022-08-26T00:10:38;3.53;;;1.88;;
33862;SDS011;20158;51.436;-2.742;2022-08-26T00:13:05;1.90;;;1.13;;
33862;SDS011;20158;51.436;-2.742;2022-08-26T00:15:31;4.00;;;2.03;;
33862;SDS011;20158;51.436;-2.742;2022-08-26T00:17:57;3.65;;;1.55;;
33862;SDS011;20158;51.436;-2.742;2022-08-26T00:20:25;2.25;;;1.10;;
33862;SDS011;20158;51.436;-2.742;2022-08-26T00:22:56;4.15;;;1.40;;
33862;SDS011;20158;51.436;-2.742;2022-08-26T00:25:22;4.05;;;1.40;;
33862;SDS011;20158;51.436;-2.742;2022-08-26T00:27:48;1.80;;;1.00;;
33862;SDS011;20158;51.436;-2.742;2022-08-26T00:30:21;3.80;;;1.20;;
33862;SDS011;20158;51.436;-2.742;2022-08-26T00:32:48;2.70;;;1.15;;
33862;SDS011;20158;51.436;-2.742;2022-08-26T00:35:15;2.85;;;1.38;;
33862;SDS011;20158;51.436;-2.742;2022-08-26T00:37:42;4.20;;;1.85;;
33862;SDS011;20158;51.436;-2.742;2022-08-26T00:40:11;4.38;;;2.00;;
33862;SDS011;20158;51.436;-2.742;2022-08-26T00:45:09;2.05;;;1.50;;
33862;SDS011;20158;51.436;-2.742;2022-08-26T00:47:37;3.17;;;1.67;;
33862;SDS011;20158;51.436;-2.742;2022-08-26T00:50:10;3.28;;;1.45;;
33862;SDS011;20158;51.436;-2.742;2022-08-26T00:52:39;2.13;;;1.25;;
33862;SDS011;20158;51.436;-2.742;2022-08-26T00:55:28;2.60;;;1.17;;
33862;SDS011;20158;51.436;-2.742;2022-08-26T00:57:58;2.72;;;1.42;;
33862;SDS011;20158;51.436;-2.742;2022-08-26T01:00:25;2.53;;;1.40;;
33862;SDS011;20158;51.436;-2.742;2022-08-26T01:02:52;3.45;;;1.90;;
33862;SDS011;20158;51.436;-2.742;2022-08-26T01:05:20;2.28;;;1.10;;
33862;SDS011;20158;51.436;-2.742;2022-08-26T01:07:47;2.58;;;1.40;;
33862;SDS011;20158;51.436;-2.742;2022-08-26T01:10:15;2.08;;;1.15;;
33862;SDS011;20158;51.436;-2.742;2022-08-26T01:12:49;2.75;;;0.90;;
33862;SDS011;20158;51.436;-2.742;2022-08-26T01:15:22;6.18;;;2.22;;
33862;SDS011;20158;51.436;-2.742;2022-08-26T01:17:51;2.40;;;1.30;;
33862;SDS011;20158;51.436;-2.742;2022-08-26T01:20:25;1.77;;;1.15;;
33862;SDS011;20158;51.436;-2.742;2022-08-26T01:22:56;1.75;;;1.17;;
33862;SDS011;20158;51.436;-2.742;2022-08-26T01:25:26;3.08;;;1.90;;
33862;SDS011;20158;51.436;-2.742;2022-08-26T01:27:55;4.40;;;1.73;;
33862;SDS011;20158;51.436;-2.742;2022-08-26T01:30:24;1.75;;;0.85;;
33862;SDS011;20158;51.436;-2.742;2022-08-26T01:32:53;1.77;;;1.38;;
33862;SDS011;20158;51.436;-2.742;2022-08-26T01:35:22;3.75;;;1.45;;
33862;SDS011;20158;51.436;-2.742;2022-08-26T01:37:48;3.70;;;1.35;;
33862;SDS011;20158;51.436;-2.742;2022-08-26T01:40:21;2.78;;;1.30;;
33862;SDS011;20158;51.436;-2.742;2022-08-26T01:42:51;2.75;;;1.48;;
33862;SDS011;20158;51.436;-2.742;2022-08-26T01:45:20;3.28;;;1.40;;
33862;SDS011;20158;51.436;-2.742;2022-08-26T01:47:50;1.90;;;0.90;;
33862;SDS011;20158;51.436;-2.742;2022-08-26T01:50:25;2.22;;;1.10;;
33862;SDS011;20158;51.436;-2.742;2022-08-26T01:52:53;3.72;;;1.10;;
33862;SDS011;20158;51.436;-2.742;2022-08-26T01:55:22;2.42;;;0.95;;
33862;SDS011;20158;51.436;-2.742;2022-08-26T01:57:50;2.40;;;1.38;;
33862;SDS011;20158;51.436;-2.742;2022-08-26T02:00:19;1.70;;;1.10;;
33862;SDS011;20158;51.436;-2.742;2022-08-26T02:02:46;2.88;;;1.27;;
33862;SDS011;20158;51.436;-2.742;2022-08-26T02:05:16;1.75;;;0.90;;
33862;SDS011;20158;51.436;-2.742;2022-08-26T02:07:44;2.35;;;1.50;;
33862;SDS011;20158;51.436;-2.742;2022-08-26T02:10:11;3.22;;;1.25;;
33862;SDS011;20158;51.436;-2.742;2022-08-26T02:12:37;2.10;;;1.13;;
33862;SDS011;20158;51.436;-2.742;2022-08-26T02:15:05;1.95;;;0.98;;
33862;SDS011;20158;51.436;-2.742;2022-08-26T02:17:36;3.95;;;1.67;;
33862;SDS011;20158;51.436;-2.742;2022-08-26T02:20:10;1.27;;;0.85;;
33862;SDS011;20158;51.436;-2.742;2022-08-26T02:22:38;2.15;;;1.00;;
33862;SDS011;20158;51.436;-2.742;2022-08-26T02:25:17;3.15;;;1.10;;
33862;SDS011;20158;51.436;-2.742;2022-08-26T02:27:49;2.65;;;0.90;;
33862;SDS011;20158;51.436;-2.742;2022-08-26T02:30:23;3.17;;;1.30;;
33862;SDS011;20158;51.436;-2.742;2022-08-26T02:32:51;2.90;;;1.05;;
33862;SDS011;20158;51.436;-2.742;2022-08-26T02:35:19;1.40;;;0.88;;
33862;SDS011;20158;51.436;-2.742;2022-08-26T02:37:47;2.25;;;0.95;;
33862;SDS011;20158;51.436;-2.742;2022-08-26T02:40:16;1.75;;;1.02;;
33862;SDS011;20158;51.436;-2.742;2022-08-26T02:42:50;2.95;;;1.23;;
33862;SDS011;20158;51.436;-2.742;2022-08-26T02:45:17;3.53;;;1.35;;
33862;SDS011;20158;51.436;-2.742;2022-08-26T02:47:45;2.70;;;0.85;;
33862;SDS011;20158;51.436;-2.742;2022-08-26T02:50:12;2.08;;;0.90;;
33862;SDS011;20158;51.436;-2.742;2022-08-26T02:52:38;1.73;;;1.38;;
33862;SDS011;20158;51.436;-2.742;2022-08-26T02:55:05;1.88;;;1.23;;
33862;SDS011;20158;51.436;-2.742;2022-08-26T02:57:31;2.47;;;1.48;;
33862;SDS011;20158;51.436;-2.742;2022-08-26T02:59:58;2.92;;;1.77;;
33862;SDS011;20158;51.436;-2.742;2022-08-26T03:02:25;1.63;;;0.90;;
33862;SDS011;20158;51.436;-2.742;2022-08-26T03:04:52;2.20;;;0.93;;
33862;SDS011;20158;51.436;-2.742;2022-08-26T03:07:18;2.00;;;1.00;;
33862;SDS011;20158;51.436;-2.742;2022-08-26T03:09:44;1.75;;;0.90;;
33862;SDS011;20158;51.436;-2.742;2022-08-26T03:12:10;4.05;;;1.27;;
33862;SDS011;20158;51.436;-2.742;2022-08-26T03:14:37;0.80;;;0.75;;
33862;SDS011;20158;51.436;-2.742;2022-08-26T03:17:02;2.42;;;1.00;;
33862;SDS011;20158;51.436;-2.742;2022-08-26T03:19:29;4.75;;;1.17;;
33862;SDS011;20158;51.436;-2.742;2022-08-26T03:21:56;2.70;;;0.98;;
33862;SDS011;20158;51.436;-2.742;2022-08-26T03:24:23;1.17;;;0.80;;
33862;SDS011;20158;51.436;-2.742;2022-08-26T03:26:53;1.40;;;0.85;;
33862;SDS011;20158;51.436;-2.742;2022-08-26T03:29:20;2.03;;;0.82;;
33862;SDS011;20158;51.436;-2.742;2022-08-26T03:32:06;2.88;;;0.80;;
33862;SDS011;20158;51.436;-2.742;2022-08-26T03:34:32;1.13;;;0.90;;
33862;SDS011;20158;51.436;-2.742;2022-08-26T03:36:58;1.20;;;0.80;;
33862;SDS011;20158;51.436;-2.742;2022-08-26T03:39:24;0.95;;;0.75;;
33862;SDS011;20158;51.436;-2.742;2022-08-26T03:41:50;2.60;;;0.88;;
33862;SDS011;20158;51.436;-2.742;2022-08-26T03:44:16;1.83;;;0.90;;
33862;SDS011;20158;51.436;-2.742;2022-08-26T03:46:43;1.77;;;0.90;;
33862;SDS011;20158;51.436;-2.742;2022-08-26T03:49:09;1.70;;;0.95;;
33862;SDS011;20158;51.436;-2.742;2022-08-26T03:51:36;2.30;;;1.00;;
33862;SDS011;20158;51.436;-2.742;2022-08-26T03:54:02;1.80;;;1.23;;
33862;SDS011;20158;51.436;-2.742;2022-08-26T03:56:29;4.05;;;1.30;;
33862;SDS011;20158;51.436;-2.742;2022-08-26T03:58:55;3.55;;;1.10;;
33862;SDS011;20158;51.436;-2.742;2022-08-26T04:01:21;2.30;;;0.85;;
33862;SDS011;20158;51.436;-2.742;2022-08-26T04:03:47;2.88;;;0.82;;
33862;SDS011;20158;51.436;-2.742;2022-08-26T04:06:28;1.50;;;0.63;;
33862;SDS011;20158;51.436;-2.742;2022-08-26T04:09:00;2.45;;;0.80;;
33862;SDS011;20158;51.436;-2.742;2022-08-26T04:11:30;2.05;;;0.80;;
33862;SDS011;20158;51.436;-2.742;2022-08-26T04:13:58;1.35;;;0.90;;
33862;SDS011;20158;51.436;-2.742;2022-08-26T04:16:25;1.33;;;0.90;;
33862;SDS011;20158;51.436;-2.742;2022-08-26T04:18:53;2.67;;;1.02;;
33862;SDS011;20158;51.436;-2.742;2022-08-26T04:21:20;1.77;;;0.82;;
33862;SDS011;20158;51.436;-2.742;2022-08-26T04:23:46;1.42;;;0.60;;
33862;SDS011;20158;51.436;-2.742;2022-08-26T04:26:15;2.42;;;0.80;;
33862;SDS011;20158;51.436;-2.742;2022-08-26T04:28:42;1.02;;;0.82;;
33862;SDS011;20158;51.436;-2.742;2022-08-26T04:31:09;2.90;;;1.05;;
33862;SDS011;20158;51.436;-2.742;2022-08-26T04:33:40;1.13;;;0.90;;
33862;SDS011;20158;51.436;-2.742;2022-08-26T04:36:06;1.23;;;0.75;;
33862;SDS011;20158;51.436;-2.742;2022-08-26T04:38:33;1.35;;;0.80;;
33862;SDS011;20158;51.436;-2.742;2022-08-26T04:40:59;1.25;;;0.80;;
33862;SDS011;20158;51.436;-2.742;2022-08-26T04:43:25;3.28;;;1.05;;
33862;SDS011;20158;51.436;-2.742;2022-08-26T04:45:55;1.90;;;0.82;;
33862;SDS011;20158;51.436;-2.742;2022-08-26T04:48:29;0.98;;;0.70;;
33862;SDS011;20158;51.436;-2.742;2022-08-26T04:50:56;2.10;;;1.00;;
33862;SDS011;20158;51.436;-2.742;2022-08-26T04:53:24;2.10;;;0.95;;
33862;SDS011;20158;51.436;-2.742;2022-08-26T04:55:51;2.05;;;0.77;;
33862;SDS011;20158;51.436;-2.742;2022-08-26T04:58:17;3.40;;;0.93;;
33862;SDS011;20158;51.436;-2.742;2022-08-26T05:00:45;2.15;;;0.90;;
33862;SDS011;20158;51.436;-2.742;2022-08-26T05:03:13;1.70;;;0.63;;
33862;SDS011;20158;51.436;-2.742;2022-08-26T05:05:41;2.50;;;0.70;;
33862;SDS011;20158;51.436;-2.742;2022-08-26T05:08:09;0.73;;;0.68;;
33862;SDS011;20158;51.436;-2.742;2022-08-26T05:10:45;1.38;;;0.70;;
33862;SDS011;20158;51.436;-2.742;2022-08-26T05:13:14;1.58;;;0.80;;
33862;SDS011;20158;51.436;-2.742;2022-08-26T05:15:42;1.73;;;0.77;;
33862;SDS011;20158;51.436;-2.742;2022-08-26T05:18:09;1.58;;;0.70;;
33862;SDS011;20158;51.436;-2.742;2022-08-26T05:20:38;1.75;;;0.82;;
33862;SDS011;20158;51.436;-2.742;2022-08-26T05:23:05;1.27;;;0.70;;
33862;SDS011;20158;51.436;-2.742;2022-08-26T05:25:35;1.55;;;0.90;;
33862;SDS011;20158;51.436;-2.742;2022-08-26T05:28:06;2.70;;;1.08;;
33862;SDS011;20158;51.436;-2.742;2022-08-26T05:30:33;1.75;;;1.10;;
33862;SDS011;20158;51.436;-2.742;2022-08-26T05:33:00;1.65;;;0.65;;
33862;SDS011;20158;51.436;-2.742;2022-08-26T05:35:27;2.63;;;0.77;;
33862;SDS011;20158;51.436;-2.742;2022-08-26T05:38:01;1.40;;;0.70;;
33862;SDS011;20158;51.436;-2.742;2022-08-26T05:40:32;2.00;;;0.70;;
33862;SDS011;20158;51.436;-2.742;2022-08-26T05:43:03;2.20;;;0.98;;
33862;SDS011;20158;51.436;-2.742;2022-08-26T05:45:39;1.55;;;0.75;;
33862;SDS011;20158;51.436;-2.742;2022-08-26T05:48:09;2.55;;;0.80;;
33862;SDS011;20158;51.436;-2.742;2022-08-26T05:50:43;1.10;;;0.80;;
33862;SDS011;20158;51.436;-2.742;2022-08-26T05:53:11;1.48;;;0.70;;
33862;SDS011;20158;51.436;-2.742;2022-08-26T05:55:46;2.40;;;0.93;;
33862;SDS011;20158;51.436;-2.742;2022-08-26T05:58:14;2.10;;;0.98;;
33862;SDS011;20158;51.436;-2.742;2022-08-26T06:00:41;1.83;;;0.70;;
33862;SDS011;20158;51.436;-2.742;2022-08-26T06:03:08;2.10;;;0.70;;
33862;SDS011;20158;51.436;-2.742;2022-08-26T06:05:38;1.63;;;0.90;;
33862;SDS011;20158;51.436;-2.742;2022-08-26T06:08:04;2.08;;;0.75;;
33862;SDS011;20158;51.436;-2.742;2022-08-26T06:10:47;1.63;;;0.90;;
33862;SDS011;20158;51.436;-2.742;2022-08-26T06:13:23;2.42;;;0.80;;
33862;SDS011;20158;51.436;-2.742;2022-08-26T06:15:53;2.10;;;1.13;;
33862;SDS011;20158;51.436;-2.742;2022-08-26T06:18:21;1.35;;;0.90;;
33862;SDS011;20158;51.436;-2.742;2022-08-26T06:20:51;3.83;;;1.10;;
33862;SDS011;20158;51.436;-2.742;2022-08-26T06:23:19;3.60;;;1.00;;
33862;SDS011;20158;51.436;-2.742;2022-08-26T06:26:06;2.70;;;0.85;;
33862;SDS011;20158;51.436;-2.742;2022-08-26T06:28:32;3.42;;;1.90;;
33862;SDS011;20158;51.436;-2.742;2022-08-26T06:30:58;1.60;;;1.00;;
33862;SDS011;20158;51.436;-2.742;2022-08-26T06:33:26;3.08;;;0.80;;
33862;SDS011;20158;51.436;-2.742;2022-08-26T06:35:53;6.13;;;1.08;;
33862;SDS011;20158;51.436;-2.742;2022-08-26T06:38:19;3.58;;;0.93;;
33862;SDS011;20158;51.436;-2.742;2022-08-26T06:40:48;4.13;;;1.60;;
33862;SDS011;20158;51.436;-2.742;2022-08-26T06:43:16;2.83;;;1.08;;
33862;SDS011;20158;51.436;-2.742;2022-08-26T06:45:44;6.38;;;1.73;;
33862;SDS011;20158;51.436;-2.742;2022-08-26T06:48:16;3.42;;;1.08;;
33862;SDS011;20158;51.436;-2.742;2022-08-26T06:50:44;6.20;;;2.53;;
33862;SDS011;20158;51.436;-2.742;2022-08-26T06:53:11;4.57;;;1.80;;
33862;SDS011;20158;51.436;-2.742;2022-08-26T06:55:44;3.80;;;1.38;;
33862;SDS011;20158;51.436;-2.742;2022-08-26T06:58:11;6.40;;;1.50;;
33862;SDS011;20158;51.436;-2.742;2022-08-26T07:00:39;2.95;;;1.17;;
33862;SDS011;20158;51.436;-2.742;2022-08-26T07:03:05;5.93;;;1.38;;
33862;SDS011;20158;51.436;-2.742;2022-08-26T07:05:32;2.13;;;1.17;;
33862;SDS011;20158;51.436;-2.742;2022-08-26T07:07:59;2.03;;;1.00;;
33862;SDS011;20158;51.436;-2.742;2022-08-26T07:10:25;3.20;;;1.30;;
33862;SDS011;20158;51.436;-2.742;2022-08-26T07:12:52;5.25;;;0.90;;
33862;SDS011;20158;51.436;-2.742;2022-08-26T07:15:18;3.80;;;1.25;;
33862;SDS011;20158;51.436;-2.742;2022-08-26T07:17:44;2.78;;;1.05;;
33862;SDS011;20158;51.436;-2.742;2022-08-26T07:20:10;7.43;;;2.05;;
33862;SDS011;20158;51.436;-2.742;2022-08-26T07:22:37;5.90;;;1.17;;
33862;SDS011;20158;51.436;-2.742;2022-08-26T07:25:04;3.25;;;1.02;;
33862;SDS011;20158;51.436;-2.742;2022-08-26T07:27:32;3.65;;;1.20;;
33862;SDS011;20158;51.436;-2.742;2022-08-26T07:29:59;4.57;;;1.92;;
33862;SDS011;20158;51.436;-2.742;2022-08-26T07:32:26;5.03;;;1.65;;
33862;SDS011;20158;51.436;-2.742;2022-08-26T07:34:52;5.47;;;1.30;;
33862;SDS011;20158;51.436;-2.742;2022-08-26T07:37:18;7.30;;;2.28;;
33862;SDS011;20158;51.436;-2.742;2022-08-26T07:39:44;6.43;;;2.50;;
33862;SDS011;20158;51.436;-2.742;2022-08-26T07:42:11;5.97;;;2.22;;
33862;SDS011;20158;51.436;-2.742;2022-08-26T07:44:39;4.72;;;1.60;;
33862;SDS011;20158;51.436;-2.742;2022-08-26T07:47:06;7.28;;;1.20;;
33862;SDS011;20158;51.436;-2.742;2022-08-26T07:49:32;6.97;;;1.98;;
33862;SDS011;20158;51.436;-2.742;2022-08-26T07:51:59;4.82;;;2.13;;
33862;SDS011;20158;51.436;-2.742;2022-08-26T07:54:25;3.65;;;1.38;;
33862;SDS011;20158;51.436;-2.742;2022-08-26T07:56:51;3.50;;;1.70;;
33862;SDS011;20158;51.436;-2.742;2022-08-26T07:59:18;4.38;;;1.50;;
33862;SDS011;20158;51.436;-2.742;2022-08-26T08:01:44;5.53;;;2.67;;
33862;SDS011;20158;51.436;-2.742;2022-08-26T08:04:12;4.47;;;1.98;;
33862;SDS011;20158;51.436;-2.742;2022-08-26T08:06:38;4.82;;;1.50;;
33862;SDS011;20158;51.436;-2.742;2022-08-26T08:09:05;3.95;;;1.70;;
33862;SDS011;20158;51.436;-2.742;2022-08-26T08:11:31;4.45;;;1.45;;
33862;SDS011;20158;51.436;-2.742;2022-08-26T08:13:57;3.00;;;1.35;;
33862;SDS011;20158;51.436;-2.742;2022-08-26T08:16:25;3.00;;;1.40;;
33862;SDS011;20158;51.436;-2.742;2022-08-26T08:18:54;4.00;;;1.63;;
33862;SDS011;20158;51.436;-2.742;2022-08-26T08:21:21;3.33;;;1.38;;
33862;SDS011;20158;51.436;-2.742;2022-08-26T08:23:48;5.15;;;1.70;;
33862;SDS011;20158;51.436;-2.742;2022-08-26T08:26:15;4.80;;;1.65;;
33862;SDS011;20158;51.436;-2.742;2022-08-26T08:28:41;5.38;;;1.65;;
33862;SDS011;20158;51.436;-2.742;2022-08-26T08:31:07;7.10;;;1.42;;
33862;SDS011;20158;51.436;-2.742;2022-08-26T08:33:33;5.78;;;1.95;;
33862;SDS011;20158;51.436;-2.742;2022-08-26T08:36:00;2.35;;;1.08;;
33862;SDS011;20158;51.436;-2.742;2022-08-26T08:38:26;6.88;;;1.40;;
33862;SDS011;20158;51.436;-2.742;2022-08-26T08:40:53;3.95;;;1.17;;
33862;SDS011;20158;51.436;-2.742;2022-08-26T08:43:27;5.35;;;1.90;;
33862;SDS011;20158;51.436;-2.742;2022-08-26T08:46:04;1.95;;;1.42;;
33862;SDS011;20158;51.436;-2.742;2022-08-26T08:48:36;5.78;;;1.10;;
33862;SDS011;20158;51.436;-2.742;2022-08-26T08:51:14;4.03;;;1.20;;
33862;SDS011;20158;51.436;-2.742;2022-08-26T08:54:02;6.82;;;1.88;;
33862;SDS011;20158;51.436;-2.742;2022-08-26T08:56:31;2.88;;;0.93;;
33862;SDS011;20158;51.436;-2.742;2022-08-26T09:08:10;3.28;;;1.30;;
33862;SDS011;20158;51.436;-2.742;2022-08-26T09:10:40;4.30;;;1.80;;
33862;SDS011;20158;51.436;-2.742;2022-08-26T09:13:12;6.72;;;2.13;;
33862;SDS011;20158;51.436;-2.742;2022-08-26T09:21:22;7.10;;;2.20;;
33862;SDS011;20158;51.436;-2.742;2022-08-26T09:23:49;7.70;;;1.65;;
33862;SDS011;20158;51.436;-2.742;2022-08-26T09:26:20;12.80;;;2.40;;
33862;SDS011;20158;51.436;-2.742;2022-08-26T09:31:25;6.30;;;1.80;;
33862;SDS011;20158;51.436;-2.742;2022-08-26T09:36:49;7.20;;;2.30;;
33862;SDS011;20158;51.436;-2.742;2022-08-26T09:39:31;4.72;;;1.75;;
33862;SDS011;20158;51.436;-2.742;2022-08-26T09:45:01;8.35;;;2.15;;
33862;SDS011;20158;51.436;-2.742;2022-08-26T09:47:32;4.72;;;1.48;;
33862;SDS011;20158;51.436;-2.742;2022-08-26T09:55:45;8.27;;;2.78;;
33862;SDS011;20158;51.436;-2.742;2022-08-26T09:58:13;5.10;;;1.65;;
33862;SDS011;20158;51.436;-2.742;2022-08-26T10:00:57;7.22;;;2.25;;
33862;SDS011;20158;51.436;-2.742;2022-08-26T10:03:26;6.43;;;1.33;;
33862;SDS011;20158;51.436;-2.742;2022-08-26T10:06:05;5.85;;;2.28;;
33862;SDS011;20158;51.436;-2.742;2022-08-26T10:08:41;3.92;;;1.30;;
33862;SDS011;20158;51.436;-2.742;2022-08-26T10:14:49;10.23;;;1.92;;
33862;SDS011;20158;51.436;-2.742;2022-08-26T10:16:59;5.68;;;1.23;;
33862;SDS011;20158;51.436;-2.742;2022-08-26T10:20:31;5.13;;;1.50;;
33862;SDS011;20158;51.436;-2.742;2022-08-26T10:23:02;6.32;;;1.60;;
33862;SDS011;20158;51.436;-2.742;2022-08-26T10:25:51;5.07;;;1.25;;
33862;SDS011;20158;51.436;-2.742;2022-08-26T10:28:42;6.80;;;1.63;;
33862;SDS011;20158;51.436;-2.742;2022-08-26T10:31:15;4.78;;;1.45;;
33862;SDS011;20158;51.436;-2.742;2022-08-26T10:33:43;6.35;;;1.58;;
33862;SDS011;20158;51.436;-2.742;2022-08-26T10:36:10;14.80;;;2.63;;
33862;SDS011;20158;51.436;-2.742;2022-08-26T10:39:01;5.97;;;1.52;;
33862;SDS011;20158;51.436;-2.742;2022-08-26T10:41:31;7.22;;;1.70;;
33862;SDS011;20158;51.436;-2.742;2022-08-26T10:44:04;6.85;;;1.55;;
33862;SDS011;20158;51.436;-2.742;2022-08-26T10:46:35;5.88;;;1.50;;
33862;SDS011;20158;51.436;-2.742;2022-08-26T10:49:09;6.47;;;1.75;;
33862;SDS011;20158;51.436;-2.742;2022-08-26T10:51:49;6.30;;;2.13;;
33862;SDS011;20158;51.436;-2.742;2022-08-26T10:57:06;6.88;;;1.45;;
33862;SDS011;20158;51.436;-2.742;2022-08-26T11:02:19;6.63;;;1.40;;
33862;SDS011;20158;51.436;-2.742;2022-08-26T11:05:04;5.43;;;1.38;;
33862;SDS011;20158;51.436;-2.742;2022-08-26T11:07:43;5.25;;;1.60;;
33862;SDS011;20158;51.436;-2.742;2022-08-26T11:31:02;4.00;;;1.10;;
33862;SDS011;20158;51.436;-2.742;2022-08-26T11:34:01;3.83;;;1.25;;
33862;SDS011;20158;51.436;-2.742;2022-08-26T11:41:50;4.47;;;1.10;;
33862;SDS011;20158;51.436;-2.742;2022-08-26T11:44:23;5.20;;;1.30;;
33862;SDS011;20158;51.436;-2.742;2022-08-26T11:46:59;9.38;;;1.75;;
33862;SDS011;20158;51.436;-2.742;2022-08-26T11:49:26;3.45;;;1.20;;
33862;SDS011;20158;51.436;-2.742;2022-08-26T11:52:06;3.88;;;1.20;;
33862;SDS011;20158;51.436;-2.742;2022-08-26T11:54:34;2.60;;;0.82;;
33862;SDS011;20158;51.436;-2.742;2022-08-26T11:57:00;12.25;;;1.95;;
33862;SDS011;20158;51.436;-2.742;2022-08-26T11:59:29;4.03;;;1.55;;
33862;SDS011;20158;51.436;-2.742;2022-08-26T12:02:00;4.05;;;0.98;;
33862;SDS011;20158;51.436;-2.742;2022-08-26T12:04:31;5.22;;;1.25;;
33862;SDS011;20158;51.436;-2.742;2022-08-26T12:06:58;3.20;;;0.77;;
33862;SDS011;20158;51.436;-2.742;2022-08-26T12:12:08;2.85;;;1.00;;
33862;SDS011;20158;51.436;-2.742;2022-08-26T12:14:35;4.65;;;0.90;;
33862;SDS011;20158;51.436;-2.742;2022-08-26T12:17:16;4.50;;;1.08;;
33862;SDS011;20158;51.436;-2.742;2022-08-26T12:19:43;3.22;;;1.45;;
33862;SDS011;20158;51.436;-2.742;2022-08-26T12:22:16;3.33;;;1.20;;
33862;SDS011;20158;51.436;-2.742;2022-08-26T12:24:47;2.90;;;1.15;;
33862;SDS011;20158;51.436;-2.742;2022-08-26T12:27:16;3.67;;;1.27;;
33862;SDS011;20158;51.436;-2.742;2022-08-26T12:29:59;3.17;;;1.05;;
33862;SDS011;20158;51.436;-2.742;2022-08-26T12:32:26;4.43;;;1.52;;
33862;SDS011;20158;51.436;-2.742;2022-08-26T12:34:55;2.88;;;1.45;;
33862;SDS011;20158;51.436;-2.742;2022-08-26T12:37:22;5.97;;;1.13;;
33862;SDS011;20158;51.436;-2.742;2022-08-26T12:39:51;4.80;;;1.05;;
33862;SDS011;20158;51.436;-2.742;2022-08-26T12:42:38;2.88;;;1.60;;
33862;SDS011;20158;51.436;-2.742;2022-08-26T12:45:06;5.50;;;1.20;;
33862;SDS011;20158;51.436;-2.742;2022-08-26T12:47:40;4.95;;;1.25;;
33862;SDS011;20158;51.436;-2.742;2022-08-26T12:50:15;4.10;;;1.50;;
33862;SDS011;20158;51.436;-2.742;2022-08-26T13:00:45;3.63;;;1.20;;
33862;SDS011;20158;51.436;-2.742;2022-08-26T13:08:41;5.53;;;1.98;;
33862;SDS011;20158;51.436;-2.742;2022-08-26T13:13:42;2.92;;;1.00;;
33862;SDS011;20158;51.436;-2.742;2022-08-26T13:16:10;1.67;;;0.90;;
33862;SDS011;20158;51.436;-2.742;2022-08-26T13:18:36;2.50;;;0.75;;
33862;SDS011;20158;51.436;-2.742;2022-08-26T13:21:13;2.67;;;0.73;;
33862;SDS011;20158;51.436;-2.742;2022-08-26T13:23:42;1.38;;;0.40;;
33862;SDS011;20158;51.436;-2.742;2022-08-26T13:26:09;1.92;;;0.82;;
33862;SDS011;20158;51.436;-2.742;2022-08-26T13:28:35;3.70;;;1.10;;
33862;SDS011;20158;51.436;-2.742;2022-08-26T13:31:01;1.42;;;0.80;;
33862;SDS011;20158;51.436;-2.742;2022-08-26T13:33:29;0.82;;;0.50;;
33862;SDS011;20158;51.436;-2.742;2022-08-26T13:35:56;0.90;;;0.30;;
33862;SDS011;20158;51.436;-2.742;2022-08-26T13:38:23;1.08;;;0.43;;
33862;SDS011;20158;51.436;-2.742;2022-08-26T13:40:49;1.85;;;0.50;;
33862;SDS011;20158;51.436;-2.742;2022-08-26T13:43:15;1.05;;;0.47;;
33862;SDS011;20158;51.436;-2.742;2022-08-26T13:45:41;0.50;;;0.50;;
33862;SDS011;20158;51.436;-2.742;2022-08-26T13:48:09;1.73;;;0.50;;
33862;SDS011;20158;51.436;-2.742;2022-08-26T13:50:35;0.30;;;0.30;;
33862;SDS011;20158;51.436;-2.742;2022-08-26T13:53:01;1.73;;;0.40;;
33862;SDS011;20158;51.436;-2.742;2022-08-26T13:55:27;1.27;;;0.40;;
33862;SDS011;20158;51.436;-2.742;2022-08-26T13:57:53;1.52;;;0.80;;
33862;SDS011;20158;51.436;-2.742;2022-08-26T14:00:20;1.77;;;0.60;;
33862;SDS011;20158;51.436;-2.742;2022-08-26T14:02:47;2.97;;;0.75;;
33862;SDS011;20158;51.436;-2.742;2022-08-26T14:05:13;0.75;;;0.40;;
33862;SDS011;20158;51.436;-2.742;2022-08-26T14:07:41;1.00;;;0.40;;
33862;SDS011;20158;51.436;-2.742;2022-08-26T14:10:07;2.78;;;1.15;;
33862;SDS011;20158;51.436;-2.742;2022-08-26T14:12:33;1.73;;;0.80;;
33862;SDS011;20158;51.436;-2.742;2022-08-26T14:15:00;1.23;;;0.50;;
33862;SDS011;20158;51.436;-2.742;2022-08-26T14:17:26;1.70;;;0.57;;
33862;SDS011;20158;51.436;-2.742;2022-08-26T14:19:52;2.15;;;0.50;;
33862;SDS011;20158;51.436;-2.742;2022-08-26T14:22:19;2.15;;;0.70;;
33862;SDS011;20158;51.436;-2.742;2022-08-26T14:24:46;1.70;;;0.70;;
33862;SDS011;20158;51.436;-2.742;2022-08-26T14:27:13;1.88;;;0.77;;
33862;SDS011;20158;51.436;-2.742;2022-08-26T14:29:39;1.58;;;0.82;;
33862;SDS011;20158;51.436;-2.742;2022-08-26T14:32:09;1.73;;;0.75;;
33862;SDS011;20158;51.436;-2.742;2022-08-26T14:34:39;1.98;;;0.82;;
33862;SDS011;20158;51.436;-2.742;2022-08-26T14:37:06;2.70;;;0.90;;
33862;SDS011;20158;51.436;-2.742;2022-08-26T14:39:32;1.17;;;0.73;;
33862;SDS011;20158;51.436;-2.742;2022-08-26T14:41:59;2.58;;;0.77;;
33862;SDS011;20158;51.436;-2.742;2022-08-26T14:44:29;2.13;;;0.63;;
33862;SDS011;20158;51.436;-2.742;2022-08-26T14:46:57;2.80;;;0.70;;
33862;SDS011;20158;51.436;-2.742;2022-08-26T14:49:25;1.38;;;0.63;;
33862;SDS011;20158;51.436;-2.742;2022-08-26T14:51:51;2.45;;;0.57;;
33862;SDS011;20158;51.436;-2.742;2022-08-26T14:54:19;2.03;;;0.70;;
33862;SDS011;20158;51.436;-2.742;2022-08-26T14:59:25;9.70;;;1.23;;
33862;SDS011;20158;51.436;-2.742;2022-08-26T15:01:52;7.38;;;1.35;;
33862;SDS011;20158;51.436;-2.742;2022-08-26T15:04:18;5.15;;;0.77;;
33862;SDS011;20158;51.436;-2.742;2022-08-26T15:06:45;1.98;;;0.70;;
33862;SDS011;20158;51.436;-2.742;2022-08-26T15:09:12;2.58;;;1.23;;
33862;SDS011;20158;51.436;-2.742;2022-08-26T15:11:39;2.72;;;1.02;;
33862;SDS011;20158;51.436;-2.742;2022-08-26T15:14:05;2.53;;;0.50;;
33862;SDS011;20158;51.436;-2.742;2022-08-26T15:16:31;0.85;;;0.43;;
33862;SDS011;20158;51.436;-2.742;2022-08-26T15:18:58;1.88;;;0.52;;
33862;SDS011;20158;51.436;-2.742;2022-08-26T15:21:24;1.83;;;0.70;;
33862;SDS011;20158;51.436;-2.742;2022-08-26T15:23:51;0.52;;;0.40;;
33862;SDS011;20158;51.436;-2.742;2022-08-26T15:26:18;0.60;;;0.40;;
33862;SDS011;20158;51.436;-2.742;2022-08-26T15:28:46;1.52;;;0.35;;
33862;SDS011;20158;51.436;-2.742;2022-08-26T15:31:12;3.58;;;0.80;;
33862;SDS011;20158;51.436;-2.742;2022-08-26T15:33:38;1.52;;;0.52;;
33862;SDS011;20158;51.436;-2.742;2022-08-26T15:36:05;1.73;;;0.70;;
33862;SDS011;20158;51.436;-2.742;2022-08-26T15:38:33;2.97;;;0.70;;
33862;SDS011;20158;51.436;-2.742;2022-08-26T15:41:02;2.33;;;0.60;;
33862;SDS011;20158;51.436;-2.742;2022-08-26T15:43:29;1.73;;;0.50;;
33862;SDS011;20158;51.436;-2.742;2022-08-26T15:45:58;0.43;;;0.30;;
33862;SDS011;20158;51.436;-2.742;2022-08-26T15:48:25;1.30;;;0.57;;
33862;SDS011;20158;51.436;-2.742;2022-08-26T15:50:59;2.20;;;0.55;;
33862;SDS011;20158;51.436;-2.742;2022-08-26T15:53:26;1.92;;;0.75;;
33862;SDS011;20158;51.436;-2.742;2022-08-26T15:55:55;1.13;;;0.50;;
33862;SDS011;20158;51.436;-2.742;2022-08-26T15:58:22;1.38;;;0.50;;
33862;SDS011;20158;51.436;-2.742;2022-08-26T16:00:49;1.33;;;0.50;;
33862;SDS011;20158;51.436;-2.742;2022-08-26T16:03:16;1.67;;;0.70;;
33862;SDS011;20158;51.436;-2.742;2022-08-26T16:05:42;0.88;;;0.70;;
33862;SDS011;20158;51.436;-2.742;2022-08-26T16:08:09;0.60;;;0.35;;
33862;SDS011;20158;51.436;-2.742;2022-08-26T16:10:36;2.00;;;0.50;;
33862;SDS011;20158;51.436;-2.742;2022-08-26T16:13:03;1.02;;;0.40;;